createdAt,value
2017-12-13T00:01:26.963Z,91.19
2017-12-13T00:02:54.135Z,91.21
2017-12-13T00:04:25.410Z,91.16
2017-12-13T00:05:52.628Z,91.23
2017-12-13T00:07:19.723Z,91.14
2017-12-13T00:08:42.970Z,91.08
2017-12-13T00:10:14.183Z,90.94
2017-12-13T00:11:37.329Z,90.89
2017-12-13T00:13:04.628Z,90.74
2017-12-13T00:14:31.692Z,90.76
2017-12-13T00:16:02.934Z,90.83
2017-12-13T00:17:30.017Z,90.69
2017-12-13T00:18:57.521Z,90.86
2017-12-13T00:20:20.723Z,90.66
2017-12-13T00:21:52.030Z,90.56
2017-12-13T00:23:15.201Z,90.59
2017-12-13T00:24:42.612Z,90.55
2017-12-13T00:26:09.824Z,90.48
2017-12-13T00:27:40.996Z,90.51
2017-12-13T00:29:04.167Z,90.34
2017-12-13T00:30:35.043Z,90.46
2017-12-13T00:32:02.039Z,90.50
2017-12-13T00:33:28.608Z,90.36
2017-12-13T00:34:55.869Z,90.51
2017-12-13T00:36:19.195Z,90.93
2017-12-13T00:37:46.297Z,90.82
2017-12-13T00:39:17.379Z,90.45
2017-12-13T00:40:40.554Z,90.26
2017-12-13T00:42:07.809Z,90.06
2017-12-13T00:43:39.096Z,90.42
2017-12-13T00:45:06.254Z,90.22
2017-12-13T00:46:29.471Z,90.21
2017-12-13T00:47:56.822Z,90.09
2017-12-13T00:49:27.989Z,90.29
2017-12-13T00:50:51.287Z,90.02
2017-12-13T00:52:22.506Z,90.18
2017-12-13T00:53:49.889Z,89.60
2017-12-13T00:55:16.888Z,89.63
2017-12-13T00:56:40.248Z,89.96
2017-12-13T00:58:07.330Z,89.69
2017-12-13T00:59:34.421Z,89.56
2017-12-13T01:01:01.505Z,89.82
2017-12-13T01:02:32.655Z,89.75
2017-12-13T01:03:55.989Z,89.84
2017-12-13T01:05:23.328Z,89.80
2017-12-13T01:06:50.510Z,89.54
2017-12-13T01:08:21.703Z,89.47
2017-12-13T01:09:44.903Z,89.81
2017-12-13T01:11:16.286Z,89.94
2017-12-13T01:12:43.419Z,89.82
2017-12-13T01:14:10.644Z,90.00
2017-12-13T01:15:33.883Z,90.07
2017-12-13T01:17:04.789Z,89.54
2017-12-13T01:18:32.197Z,89.52
2017-12-13T01:19:55.480Z,89.56
2017-12-13T01:21:26.776Z,89.60
2017-12-13T01:22:50.059Z,89.65
2017-12-13T01:24:17.388Z,89.61
2017-12-13T01:25:44.573Z,89.16
2017-12-13T01:27:11.807Z,89.19
2017-12-13T01:28:42.859Z,89.16
2017-12-13T01:30:05.952Z,88.93
2017-12-13T01:31:37.020Z,88.98
2017-12-13T01:33:04.433Z,89.04
2017-12-13T01:34:27.501Z,89.23
2017-12-13T01:35:54.743Z,89.20
2017-12-13T01:37:25.838Z,89.22
2017-12-13T01:38:53.208Z,89.07
2017-12-13T01:40:16.342Z,89.05
2017-12-13T01:41:47.444Z,88.87
2017-12-13T01:43:10.902Z,89.62
2017-12-13T01:44:38.117Z,89.61
2017-12-13T01:46:09.245Z,89.73
2017-12-13T01:47:32.355Z,89.05
2017-12-13T01:48:59.736Z,88.69
2017-12-13T01:50:26.982Z,88.44
2017-12-13T01:51:58.075Z,88.81
2017-12-13T01:53:25.261Z,88.61
2017-12-13T01:54:48.721Z,88.23
2017-12-13T01:56:19.775Z,87.75
2017-12-13T01:57:43.082Z,87.90
2017-12-13T01:59:14.346Z,87.29
2017-12-13T02:00:37.527Z,87.13
2017-12-13T02:02:04.646Z,87.40
2017-12-13T02:03:35.587Z,87.25
2017-12-13T02:05:02.972Z,87.71
2017-12-13T02:06:30.100Z,87.40
2017-12-13T02:07:57.208Z,87.44
2017-12-13T02:09:20.595Z,87.61
2017-12-13T02:10:47.945Z,87.73
2017-12-13T02:12:15.013Z,87.81
2017-12-13T02:13:42.134Z,87.87
2017-12-13T02:15:09.459Z,87.90
2017-12-13T02:16:36.562Z,87.95
2017-12-13T02:18:07.813Z,87.65
2017-12-13T02:19:30.746Z,87.68
2017-12-13T02:20:57.889Z,87.72
2017-12-13T02:22:25.222Z,87.40
2017-12-13T02:23:56.370Z,87.00
2017-12-13T02:25:23.509Z,87.09
2017-12-13T02:26:50.836Z,86.58
2017-12-13T02:28:13.876Z,86.64
2017-12-13T02:29:41.126Z,86.56
2017-12-13T02:31:12.221Z,86.83
2017-12-13T02:32:35.430Z,86.96
2017-12-13T02:34:06.640Z,87.02
2017-12-13T02:35:33.504Z,87.12
2017-12-13T02:37:00.709Z,87.10
2017-12-13T02:38:24.104Z,87.06
2017-12-13T02:39:55.494Z,87.01
2017-12-13T02:41:22.702Z,87.18
2017-12-13T02:42:49.970Z,87.12
2017-12-13T02:44:13.175Z,86.52
2017-12-13T02:45:44.482Z,86.63
2017-12-13T02:47:07.794Z,86.76
2017-12-13T02:48:38.929Z,86.50
2017-12-13T02:50:02.250Z,86.45
2017-12-13T02:51:29.466Z,86.41
2017-12-13T02:52:56.668Z,86.55
2017-12-13T02:54:23.934Z,86.63
2017-12-13T02:55:51.121Z,86.65
2017-12-13T02:57:22.352Z,86.81
2017-12-13T02:58:49.630Z,86.75
2017-12-13T03:00:12.967Z,86.90
2017-12-13T03:01:40.044Z,86.67
2017-12-13T03:03:07.142Z,86.51
2017-12-13T03:04:34.511Z,86.42
2017-12-13T03:06:01.629Z,86.15
2017-12-13T03:07:28.942Z,86.16
2017-12-13T03:08:56.121Z,86.26
2017-12-13T03:10:23.263Z,86.30
2017-12-13T03:11:50.565Z,86.42
2017-12-13T03:13:17.758Z,86.48
2017-12-13T03:14:49.031Z,86.59
2017-12-13T03:16:16.178Z,86.54
2017-12-13T03:17:39.544Z,86.36
2017-12-13T03:19:06.862Z,86.23
2017-12-13T03:20:34.045Z,86.14
2017-12-13T03:22:01.133Z,86.31
2017-12-13T03:23:28.385Z,86.16
2017-12-13T03:24:59.524Z,86.58
2017-12-13T03:26:22.862Z,86.35
2017-12-13T03:27:53.878Z,86.45
2017-12-13T03:29:17.173Z,86.30
2017-12-13T03:30:44.308Z,85.89
2017-12-13T03:32:15.514Z,85.66
2017-12-13T03:33:42.801Z,86.06
2017-12-13T03:35:10.040Z,86.04
2017-12-13T03:36:33.215Z,85.94
2017-12-13T03:38:04.354Z,85.95
2017-12-13T03:39:27.659Z,85.79
2017-12-13T03:40:54.820Z,86.48
2017-12-13T03:42:22.049Z,86.76
2017-12-13T03:43:53.365Z,86.39
2017-12-13T03:45:20.615Z,85.91
2017-12-13T03:46:47.859Z,86.30
2017-12-13T03:48:15.207Z,85.69
2017-12-13T03:49:42.414Z,85.71
2017-12-13T03:51:05.567Z,86.00
2017-12-13T03:52:36.704Z,85.91
2017-12-13T03:54:03.788Z,85.54
2017-12-13T03:55:30.847Z,85.43
2017-12-13T03:56:58.268Z,85.47
2017-12-13T03:58:21.386Z,85.32
2017-12-13T03:59:48.683Z,85.61
2017-12-13T04:01:15.932Z,85.90
2017-12-13T04:02:43.275Z,85.81
2017-12-13T04:04:10.474Z,86.00
2017-12-13T04:05:37.716Z,85.85
2017-12-13T04:07:05.033Z,85.95
2017-12-13T04:08:36.007Z,85.75
2017-12-13T04:10:03.418Z,85.75
2017-12-13T04:11:26.476Z,85.51
2017-12-13T04:12:57.825Z,85.45
2017-12-13T04:14:20.999Z,85.45
2017-12-13T04:15:52.236Z,85.16
2017-12-13T04:17:15.624Z,85.55
2017-12-13T04:18:42.640Z,85.03
2017-12-13T04:20:09.943Z,85.17
2017-12-13T04:21:37.295Z,85.11
2017-12-13T04:23:04.539Z,85.20
2017-12-13T04:24:31.641Z,85.26
2017-12-13T04:25:58.860Z,85.25
2017-12-13T04:27:30.126Z,85.23
2017-12-13T04:28:53.415Z,85.33
2017-12-13T04:30:24.741Z,85.64
2017-12-13T04:31:51.729Z,85.74
2017-12-13T04:33:18.970Z,85.25
2017-12-13T04:34:42.265Z,85.24
2017-12-13T04:36:13.477Z,85.07
2017-12-13T04:37:36.899Z,85.10
2017-12-13T04:39:04.023Z,85.15
2017-12-13T04:40:30.968Z,85.27
2017-12-13T04:41:58.208Z,85.31
2017-12-13T04:43:29.477Z,85.31
2017-12-13T04:44:52.964Z,85.13
2017-12-13T04:46:24.094Z,85.14
2017-12-13T04:47:47.322Z,85.02
2017-12-13T04:49:18.226Z,85.08
2017-12-13T04:50:41.566Z,84.18
2017-12-13T04:52:08.800Z,83.97
2017-12-13T04:53:40.048Z,84.34
2017-12-13T04:55:03.162Z,84.44
2017-12-13T04:56:34.427Z,84.33
2017-12-13T04:58:01.756Z,84.27
2017-12-13T04:59:24.997Z,84.40
2017-12-13T05:00:52.198Z,84.45
2017-12-13T05:02:19.299Z,84.47
2017-12-13T05:03:46.608Z,84.39
2017-12-13T05:05:13.817Z,84.49
2017-12-13T05:06:40.949Z,84.45
2017-12-13T05:08:12.155Z,84.45
2017-12-13T05:09:35.213Z,84.25
2017-12-13T05:11:02.316Z,84.51
2017-12-13T05:12:29.644Z,84.61
2017-12-13T05:13:56.913Z,84.51
2017-12-13T05:15:28.227Z,84.86
2017-12-13T05:16:55.475Z,84.71
2017-12-13T05:18:22.782Z,84.69
2017-12-13T05:19:49.834Z,84.82
2017-12-13T05:21:13.048Z,84.78
2017-12-13T05:22:40.262Z,84.88
2017-12-13T05:24:07.462Z,84.87
2017-12-13T05:25:38.731Z,84.92
2017-12-13T05:27:01.958Z,85.01
2017-12-13T05:28:33.141Z,85.02
2017-12-13T05:30:00.357Z,84.98
2017-12-13T05:31:27.423Z,85.02
2017-12-13T05:32:50.674Z,84.94
2017-12-13T05:34:17.934Z,84.98
2017-12-13T05:35:45.032Z,85.27
2017-12-13T05:37:12.384Z,85.29
2017-12-13T05:38:43.642Z,85.46
2017-12-13T05:40:10.808Z,85.50
2017-12-13T05:41:37.838Z,85.57
2017-12-13T05:43:05.145Z,85.62
2017-12-13T05:44:32.313Z,85.57
2017-12-13T05:45:59.477Z,85.63
2017-12-13T05:47:22.735Z,85.97
2017-12-13T05:48:50.112Z,85.95
2017-12-13T05:50:21.123Z,86.06
2017-12-13T05:51:44.387Z,86.07
2017-12-13T05:53:11.578Z,86.19
2017-12-13T05:54:42.867Z,86.09
2017-12-13T05:56:06.187Z,86.28
2017-12-13T05:57:33.196Z,86.48
2017-12-13T05:59:04.241Z,86.55
2017-12-13T06:00:31.470Z,86.47
2017-12-13T06:01:58.664Z,86.41
2017-12-13T06:03:21.936Z,86.31
2017-12-13T06:04:49.083Z,86.43
2017-12-13T06:06:20.257Z,86.61
2017-12-13T06:07:43.329Z,86.71
2017-12-13T06:09:10.380Z,86.77
2017-12-13T06:10:37.694Z,86.85
2017-12-13T06:12:08.831Z,86.92
2017-12-13T06:13:31.955Z,86.85
2017-12-13T06:14:58.959Z,86.84
2017-12-13T06:16:30.068Z,86.94
2017-12-13T06:17:57.474Z,86.90
2017-12-13T06:19:20.647Z,86.92
2017-12-13T06:20:51.928Z,86.94
2017-12-13T06:22:14.858Z,87.01
2017-12-13T06:23:42.263Z,86.99
2017-12-13T06:25:09.308Z,86.90
2017-12-13T06:26:36.627Z,87.06
2017-12-13T06:28:03.959Z,87.05
2017-12-13T06:29:35.040Z,86.99
2017-12-13T06:31:02.197Z,86.92
2017-12-13T06:32:25.226Z,87.01
2017-12-13T06:33:56.519Z,86.99
2017-12-13T06:35:19.455Z,87.17
2017-12-13T06:36:50.631Z,87.27
2017-12-13T06:38:18.096Z,87.19
2017-12-13T06:39:41.388Z,87.13
2017-12-13T06:41:08.540Z,87.02
2017-12-13T06:42:39.624Z,87.02
2017-12-13T06:44:02.791Z,87.00
2017-12-13T06:45:33.971Z,87.06
2017-12-13T06:46:56.982Z,87.20
2017-12-13T06:48:24.103Z,87.35
2017-12-13T06:49:55.324Z,87.34
2017-12-13T06:51:22.601Z,87.27
2017-12-13T06:52:45.548Z,87.31
2017-12-13T06:54:16.795Z,87.20
2017-12-13T06:55:43.664Z,87.09
2017-12-13T06:57:10.915Z,86.86
2017-12-13T06:58:33.980Z,86.92
2017-12-13T07:00:01.113Z,86.97
2017-12-13T07:01:32.222Z,86.90
2017-12-13T07:02:59.468Z,86.88
2017-12-13T07:04:26.601Z,86.87
2017-12-13T07:05:49.703Z,86.79
2017-12-13T07:07:17.002Z,86.68
2017-12-13T07:08:48.210Z,86.71
2017-12-13T07:10:15.294Z,86.79
2017-12-13T07:11:38.574Z,86.75
2017-12-13T07:13:09.671Z,86.94
2017-12-13T07:14:32.791Z,86.85
2017-12-13T07:16:04.050Z,86.76
2017-12-13T07:17:27.415Z,86.76
2017-12-13T07:18:54.510Z,86.86
2017-12-13T07:20:25.740Z,86.87
2017-12-13T07:21:48.966Z,86.87
2017-12-13T07:23:16.262Z,86.76
2017-12-13T07:24:47.478Z,86.83
2017-12-13T07:26:14.574Z,86.92
2017-12-13T07:27:37.869Z,86.91
2017-12-13T07:29:04.804Z,87.03
2017-12-13T07:30:32.009Z,86.97
2017-12-13T07:32:03.331Z,86.92
2017-12-13T07:33:26.433Z,87.07
2017-12-13T07:34:53.604Z,87.08
2017-12-13T07:36:20.918Z,86.98
2017-12-13T07:37:48.172Z,86.78
2017-12-13T07:39:19.217Z,86.87
2017-12-13T07:40:42.607Z,87.10
2017-12-13T07:42:13.877Z,86.96
2017-12-13T07:43:41.053Z,86.94
2017-12-13T07:45:04.183Z,86.84
2017-12-13T07:46:31.309Z,86.80
2017-12-13T07:48:02.581Z,86.91
2017-12-13T07:49:25.741Z,86.67
2017-12-13T07:50:56.837Z,86.84
2017-12-13T07:52:24.087Z,86.83
2017-12-13T07:53:51.146Z,86.68
2017-12-13T07:55:14.567Z,86.64
2017-12-13T07:56:41.456Z,86.64
2017-12-13T07:58:12.504Z,86.75
2017-12-13T07:59:39.621Z,86.56
2017-12-13T08:01:02.806Z,86.82
2017-12-13T08:02:34.017Z,86.64
2017-12-13T08:04:01.280Z,86.52
2017-12-13T08:05:28.383Z,86.64
2017-12-13T08:06:51.607Z,86.67
2017-12-13T08:08:22.615Z,86.71
2017-12-13T08:09:49.993Z,86.47
2017-12-13T08:11:17.210Z,86.46
2017-12-13T08:12:44.284Z,86.42
2017-12-13T08:14:11.264Z,86.47
2017-12-13T08:15:34.306Z,86.16
2017-12-13T08:17:05.388Z,86.15
2017-12-13T08:18:32.601Z,86.16
2017-12-13T08:19:55.881Z,86.29
2017-12-13T08:21:27.028Z,86.24
2017-12-13T08:22:54.205Z,86.09
2017-12-13T08:24:21.603Z,85.93
2017-12-13T08:25:48.810Z,85.63
2017-12-13T08:27:12.109Z,85.77
2017-12-13T08:28:43.235Z,85.98
2017-12-13T08:30:10.228Z,85.79
2017-12-13T08:31:33.571Z,85.32
2017-12-13T08:33:00.783Z,85.07
2017-12-13T08:34:31.731Z,84.76
2017-12-13T08:35:58.916Z,84.50
2017-12-13T08:37:22.068Z,84.43
2017-12-13T08:38:49.292Z,84.36
2017-12-13T08:40:16.528Z,84.14
2017-12-13T08:41:47.739Z,84.09
2017-12-13T08:43:10.794Z,83.66
2017-12-13T08:44:37.940Z,83.86
2017-12-13T08:46:05.199Z,83.61
2017-12-13T08:47:36.350Z,83.56
2017-12-13T08:49:03.639Z,83.39
2017-12-13T08:50:30.719Z,83.42
2017-12-13T08:51:53.630Z,83.48
2017-12-13T08:53:24.819Z,83.17
2017-12-13T08:54:47.956Z,83.30
2017-12-13T08:56:19.175Z,82.72
2017-12-13T08:57:46.472Z,83.06
2017-12-13T08:59:13.767Z,82.87
2017-12-13T09:00:40.942Z,82.71
2017-12-13T09:02:03.919Z,82.37
2017-12-13T09:03:31.036Z,82.69
2017-12-13T09:05:02.272Z,82.34
2017-12-13T09:06:29.493Z,82.51
2017-12-13T09:07:52.597Z,82.22
2017-12-13T09:09:23.761Z,82.45
2017-12-13T09:10:50.955Z,82.40
2017-12-13T09:12:13.999Z,82.07
2017-12-13T09:13:45.314Z,82.12
2017-12-13T09:15:08.347Z,81.80
2017-12-13T09:16:39.601Z,82.00
2017-12-13T09:18:02.664Z,82.08
2017-12-13T09:19:29.888Z,81.81
2017-12-13T09:20:57.235Z,81.35
2017-12-13T09:22:28.215Z,81.60
2017-12-13T09:23:51.205Z,81.69
2017-12-13T09:25:22.333Z,81.70
2017-12-13T09:26:45.499Z,81.60
2017-12-13T09:28:16.565Z,81.75
2017-12-13T09:29:39.724Z,81.49
2017-12-13T09:31:07.051Z,81.43
2017-12-13T09:32:34.009Z,81.75
2017-12-13T09:34:04.960Z,81.63
2017-12-13T09:35:28.172Z,81.05
2017-12-13T09:36:55.484Z,80.77
2017-12-13T09:38:22.698Z,80.97
2017-12-13T09:39:49.825Z,81.00
2017-12-13T09:41:16.782Z,80.70
2017-12-13T09:42:47.934Z,80.77
2017-12-13T09:44:15.179Z,80.56
2017-12-13T09:45:42.315Z,80.20
2017-12-13T09:47:05.512Z,80.47
2017-12-13T09:48:36.472Z,80.78
2017-12-13T09:50:03.874Z,81.12
2017-12-13T09:51:31.184Z,80.69
2017-12-13T09:52:54.432Z,80.70
2017-12-13T09:54:25.764Z,80.26
2017-12-13T09:55:48.955Z,80.67
2017-12-13T09:57:20.301Z,79.94
2017-12-13T09:58:47.475Z,80.21
2017-12-13T10:00:10.758Z,80.59
2017-12-13T10:01:41.758Z,80.12
2017-12-13T10:03:05.241Z,79.89
2017-12-13T10:04:36.252Z,79.81
2017-12-13T10:05:59.520Z,80.01
2017-12-13T10:07:30.773Z,80.36
2017-12-13T10:08:58.124Z,80.10
2017-12-13T10:10:25.310Z,79.51
2017-12-13T10:11:52.390Z,79.36
2017-12-13T10:13:15.670Z,79.25
2017-12-13T10:14:42.915Z,79.42
2017-12-13T10:16:10.261Z,79.24
2017-12-13T10:17:37.574Z,79.46
2017-12-13T10:19:08.698Z,79.45
2017-12-13T10:20:31.808Z,79.16
2017-12-13T10:22:03.071Z,78.89
2017-12-13T10:23:26.362Z,79.05
2017-12-13T10:24:57.755Z,78.49
2017-12-13T10:26:25.738Z,78.54
2017-12-13T10:27:52.200Z,78.35
2017-12-13T10:29:15.439Z,78.31
2017-12-13T10:30:46.654Z,78.34
2017-12-13T10:32:13.880Z,77.61
2017-12-13T10:33:40.922Z,77.89
2017-12-13T10:35:08.090Z,78.12
2017-12-13T10:36:31.336Z,78.58
2017-12-13T10:38:02.607Z,78.29
2017-12-13T10:39:25.859Z,78.15
2017-12-13T10:40:53.018Z,77.53
2017-12-13T10:42:20.347Z,77.51
2017-12-13T10:43:51.628Z,77.47
2017-12-13T10:45:14.956Z,77.88
2017-12-13T10:46:46.058Z,77.35
2017-12-13T10:48:13.058Z,77.39
2017-12-13T10:49:36.385Z,77.49
2017-12-13T10:51:03.402Z,77.39
2017-12-13T10:52:30.634Z,77.00
2017-12-13T10:53:57.911Z,77.29
2017-12-13T10:55:25.200Z,77.64
2017-12-13T10:56:56.286Z,77.89
2017-12-13T10:58:23.544Z,77.01
2017-12-13T10:59:50.799Z,76.49
2017-12-13T11:01:14.005Z,76.30
2017-12-13T11:02:41.230Z,76.66
2017-12-13T11:04:08.541Z,76.16
2017-12-13T11:05:39.799Z,76.31
2017-12-13T11:07:03.013Z,75.56
2017-12-13T11:08:34.312Z,76.35
2017-12-13T11:09:57.539Z,76.85
2017-12-13T11:11:28.707Z,76.66
2017-12-13T11:12:52.056Z,76.73
2017-12-13T11:14:23.375Z,76.31
2017-12-13T11:15:50.678Z,76.56
2017-12-13T11:17:13.961Z,76.59
2017-12-13T11:18:45.343Z,77.28
2017-12-13T11:20:08.488Z,76.48
2017-12-13T11:21:35.706Z,76.26
2017-12-13T11:23:02.712Z,75.94
2017-12-13T11:24:34.062Z,76.48
2017-12-13T11:26:01.327Z,76.86
2017-12-13T11:27:24.655Z,76.61
2017-12-13T11:28:55.941Z,76.54
2017-12-13T11:30:19.335Z,76.17
2017-12-13T11:31:50.602Z,77.02
2017-12-13T11:33:17.704Z,76.96
2017-12-13T11:34:40.871Z,76.68
2017-12-13T11:36:12.028Z,76.35
2017-12-13T11:37:35.321Z,76.43
2017-12-13T11:39:06.603Z,76.65
2017-12-13T11:40:29.908Z,76.08
2017-12-13T11:42:01.268Z,76.29
2017-12-13T11:43:24.503Z,76.52
2017-12-13T11:44:55.705Z,76.42
2017-12-13T11:46:18.911Z,75.87
2017-12-13T11:47:46.341Z,75.96
2017-12-13T11:49:13.649Z,75.86
2017-12-13T11:50:40.945Z,75.93
2017-12-13T11:52:08.136Z,75.84
2017-12-13T11:53:35.423Z,75.59
2017-12-13T11:55:02.598Z,75.91
2017-12-13T11:56:29.815Z,75.92
2017-12-13T11:58:01.081Z,75.78
2017-12-13T11:59:24.546Z,75.64
2017-12-13T12:00:51.778Z,75.87
2017-12-13T12:02:19.126Z,75.69
2017-12-13T12:03:46.398Z,75.94
2017-12-13T12:05:13.802Z,75.66
2017-12-13T12:06:41.119Z,75.87
2017-12-13T12:08:12.292Z,76.20
2017-12-13T12:09:35.447Z,76.30
2017-12-13T12:11:02.756Z,75.89
2017-12-13T12:12:30.164Z,76.08
2017-12-13T12:14:01.545Z,76.04
2017-12-13T12:15:24.739Z,75.95
2017-12-13T12:16:55.678Z,75.58
2017-12-13T12:18:23.187Z,75.79
2017-12-13T12:19:50.289Z,75.64
2017-12-13T12:21:13.647Z,75.96
2017-12-13T12:22:44.567Z,75.84
2017-12-13T12:24:07.836Z,75.37
2017-12-13T12:25:38.900Z,75.54
2017-12-13T12:27:02.107Z,75.85
2017-12-13T12:28:29.356Z,76.46
2017-12-13T12:30:00.591Z,76.05
2017-12-13T12:31:23.848Z,76.14
2017-12-13T12:32:50.907Z,75.93
2017-12-13T12:34:22.310Z,75.93
2017-12-13T12:35:49.642Z,76.20
2017-12-13T12:37:12.965Z,76.02
2017-12-13T12:38:44.177Z,76.72
2017-12-13T12:40:11.535Z,76.11
2017-12-13T12:41:38.597Z,76.18
2017-12-13T12:43:05.419Z,76.56
2017-12-13T12:44:32.755Z,76.33
2017-12-13T12:45:56.103Z,76.34
2017-12-13T12:47:27.242Z,76.82
2017-12-13T12:48:54.411Z,76.48
2017-12-13T12:50:17.544Z,76.59
2017-12-13T12:51:48.643Z,75.70
2017-12-13T12:53:15.788Z,76.02
2017-12-13T12:54:39.063Z,76.43
2017-12-13T12:56:10.480Z,76.41
2017-12-13T12:57:37.504Z,76.31
2017-12-13T12:59:00.720Z,76.58
2017-12-13T13:00:32.273Z,76.70
2017-12-13T13:01:55.445Z,76.22
2017-12-13T13:03:22.669Z,76.49
2017-12-13T13:04:49.784Z,76.27
2017-12-13T13:06:17.078Z,76.38
2017-12-13T13:07:44.340Z,76.63
2017-12-13T13:09:11.717Z,76.47
2017-12-13T13:10:38.782Z,76.62
2017-12-13T13:12:06.034Z,76.60
2017-12-13T13:13:37.148Z,76.40
2017-12-13T13:15:00.522Z,76.54
2017-12-13T13:16:27.846Z,76.48
2017-12-13T13:17:55.035Z,76.40
2017-12-13T13:19:22.306Z,76.03
2017-12-13T13:20:53.707Z,76.29
2017-12-13T13:22:16.813Z,75.84
2017-12-13T13:23:44.231Z,76.22
2017-12-13T13:25:15.470Z,76.34
2017-12-13T13:26:38.642Z,76.60
2017-12-13T13:28:09.975Z,76.45
2017-12-13T13:29:37.216Z,76.47
2017-12-13T13:31:00.315Z,76.99
2017-12-13T13:32:27.356Z,76.56
2017-12-13T13:33:54.688Z,75.98
2017-12-13T13:35:25.866Z,76.55
2017-12-13T13:36:53.094Z,76.62
2017-12-13T13:38:20.230Z,76.56
2017-12-13T13:39:43.692Z,76.50
2017-12-13T13:41:14.933Z,76.48
2017-12-13T13:42:38.175Z,76.45
2017-12-13T13:44:05.408Z,76.67
2017-12-13T13:45:36.543Z,77.02
2017-12-13T13:46:59.712Z,76.97
2017-12-13T13:48:31.143Z,77.40
2017-12-13T13:49:54.338Z,77.47
2017-12-13T13:51:21.572Z,77.78
2017-12-13T13:52:48.819Z,77.69
2017-12-13T13:54:15.959Z,77.87
2017-12-13T13:55:43.296Z,77.84
2017-12-13T13:57:14.495Z,78.08
2017-12-13T13:58:41.351Z,78.10
2017-12-13T14:00:04.692Z,78.17
2017-12-13T14:01:35.848Z,78.27
2017-12-13T14:02:59.211Z,78.50
2017-12-13T14:04:26.257Z,78.56
2017-12-13T14:05:57.271Z,78.64
2017-12-13T14:07:24.548Z,78.64
2017-12-13T14:08:51.785Z,78.67
2017-12-13T14:10:15.081Z,78.75
2017-12-13T14:11:42.486Z,78.98
2017-12-13T14:13:13.770Z,79.22
2017-12-13T14:14:36.909Z,79.23
2017-12-13T14:16:08.158Z,79.16
2017-12-13T14:17:35.074Z,79.08
2017-12-13T14:18:58.202Z,78.99
2017-12-13T14:20:25.357Z,79.25
2017-12-13T14:21:52.684Z,79.32
2017-12-13T14:23:19.923Z,79.16
2017-12-13T14:24:47.234Z,79.32
2017-12-13T14:26:14.490Z,79.35
2017-12-13T14:27:41.642Z,79.16
2017-12-13T14:29:12.839Z,79.17
2017-12-13T14:30:40.074Z,79.47
2017-12-13T14:32:03.192Z,79.60
2017-12-13T14:33:30.382Z,79.68
2017-12-13T14:35:01.687Z,79.41
2017-12-13T14:36:28.872Z,79.56
2017-12-13T14:37:52.035Z,79.39
2017-12-13T14:39:23.218Z,79.83
2017-12-13T14:40:46.490Z,79.78
2017-12-13T14:42:13.508Z,79.51
2017-12-13T14:43:40.580Z,79.64
2017-12-13T14:45:07.723Z,79.91
2017-12-13T14:46:38.880Z,79.84
2017-12-13T14:48:01.731Z,79.44
2017-12-13T14:49:28.882Z,79.51
2017-12-13T14:50:56.158Z,79.66
2017-12-13T14:52:27.257Z,79.84
2017-12-13T14:53:50.431Z,79.75
2017-12-13T14:55:17.716Z,79.72
2017-12-13T14:56:44.786Z,79.91
2017-12-13T14:58:12.135Z,79.50
2017-12-13T14:59:39.369Z,79.33
2017-12-13T15:01:10.557Z,79.15
2017-12-13T15:02:33.749Z,79.06
2017-12-13T15:04:05.164Z,79.33
2017-12-13T15:05:28.285Z,79.11
2017-12-13T15:06:55.567Z,79.39
2017-12-13T15:08:22.833Z,79.33
2017-12-13T15:09:49.993Z,79.27
2017-12-13T15:11:21.233Z,79.19
2017-12-13T15:12:44.371Z,79.13
2017-12-13T15:14:11.636Z,79.13
2017-12-13T15:15:42.796Z,79.26
2017-12-13T15:17:06.098Z,79.32
2017-12-13T15:18:33.367Z,79.28
2017-12-13T15:20:04.602Z,79.46
2017-12-13T15:21:32.039Z,80.03
2017-12-13T15:22:55.207Z,79.67
2017-12-13T15:24:26.412Z,80.48
2017-12-13T15:25:53.727Z,80.43
2017-12-13T15:27:16.992Z,81.03
2017-12-13T15:28:44.276Z,80.52
2017-12-13T15:30:11.547Z,81.41
2017-12-13T15:31:38.615Z,81.31
2017-12-13T15:33:05.732Z,81.81
2017-12-13T15:34:32.941Z,81.81
2017-12-13T15:36:03.983Z,82.65
2017-12-13T15:37:31.151Z,82.44
2017-12-13T15:38:54.426Z,83.44
2017-12-13T15:40:21.371Z,83.90
2017-12-13T15:41:52.878Z,83.73
2017-12-13T15:43:19.954Z,84.50
2017-12-13T15:44:43.047Z,85.30
2017-12-13T15:46:14.210Z,85.29
2017-12-13T15:47:37.192Z,85.55
2017-12-13T15:49:08.419Z,85.43
2017-12-13T15:50:35.430Z,85.67
2017-12-13T15:52:02.618Z,85.77
2017-12-13T15:53:29.877Z,85.69
2017-12-13T15:54:53.044Z,86.27
2017-12-13T15:56:24.201Z,85.63
2017-12-13T15:57:47.532Z,85.87
2017-12-13T15:59:14.793Z,85.78
2017-12-13T16:00:42.130Z,85.89
2017-12-13T16:02:09.336Z,85.90
2017-12-13T16:03:36.586Z,86.29
2017-12-13T16:05:03.599Z,86.35
2017-12-13T16:06:34.843Z,86.06
2017-12-13T16:08:02.052Z,86.09
2017-12-13T16:09:28.975Z,86.35
2017-12-13T16:10:56.050Z,86.67
2017-12-13T16:12:19.446Z,86.45
2017-12-13T16:13:46.835Z,86.63
2017-12-13T16:15:14.212Z,86.67
2017-12-13T16:16:45.430Z,86.70
2017-12-13T16:18:12.556Z,86.78
2017-12-13T16:19:39.826Z,86.88
2017-12-13T16:21:02.864Z,86.68
2017-12-13T16:22:30.203Z,86.94
2017-12-13T16:23:57.405Z,87.11
2017-12-13T16:25:28.717Z,86.88
2017-12-13T16:26:55.960Z,87.13
2017-12-13T16:28:23.196Z,87.31
2017-12-13T16:29:46.395Z,87.63
2017-12-13T16:31:13.558Z,87.38
2017-12-13T16:32:44.931Z,87.79
2017-12-13T16:34:08.098Z,87.74
2017-12-13T16:35:35.335Z,87.96
2017-12-13T16:37:02.538Z,88.14
2017-12-13T16:38:33.801Z,88.11
2017-12-13T16:39:57.056Z,88.41
2017-12-13T16:41:24.256Z,88.73
2017-12-13T16:42:51.425Z,88.62
2017-12-13T16:44:22.706Z,88.34
2017-12-13T16:45:46.066Z,88.83
2017-12-13T16:47:17.271Z,88.98
2017-12-13T16:48:40.518Z,89.20
2017-12-13T16:50:11.770Z,89.50
2017-12-13T16:51:38.714Z,89.53
2017-12-13T16:53:01.872Z,89.62
2017-12-13T16:54:33.048Z,90.02
2017-12-13T16:55:56.398Z,89.86
2017-12-13T16:57:27.606Z,89.77
2017-12-13T16:58:50.819Z,89.67
2017-12-13T17:00:18.124Z,90.16
2017-12-13T17:01:49.448Z,90.23
2017-12-13T17:03:12.608Z,90.84
2017-12-13T17:04:39.966Z,90.83
2017-12-13T17:06:11.109Z,90.82
2017-12-13T17:07:38.240Z,91.10
2017-12-13T17:09:01.462Z,91.37
2017-12-13T17:10:28.782Z,91.39
2017-12-13T17:11:55.977Z,91.41
2017-12-13T17:13:23.369Z,91.37
2017-12-13T17:14:50.307Z,91.53
2017-12-13T17:16:17.522Z,91.94
2017-12-13T17:17:44.721Z,92.14
2017-12-13T17:19:12.007Z,92.46
2017-12-13T17:20:39.137Z,92.62
2017-12-13T17:22:10.362Z,92.46
2017-12-13T17:23:33.611Z,92.75
2017-12-13T17:25:00.841Z,92.80
2017-12-13T17:26:28.012Z,92.70
2017-12-13T17:27:59.265Z,92.88
2017-12-13T17:29:26.545Z,92.95
2017-12-13T17:30:49.791Z,93.20
2017-12-13T17:32:20.960Z,93.21
2017-12-13T17:33:44.083Z,93.43
2017-12-13T17:35:15.164Z,93.48
2017-12-13T17:36:38.180Z,93.41
2017-12-13T17:38:05.276Z,93.58
2017-12-13T17:39:36.679Z,93.36
2017-12-13T17:41:03.569Z,93.36
2017-12-13T17:42:30.741Z,93.26
2017-12-13T17:43:58.009Z,93.42
2017-12-13T17:45:25.241Z,93.48
2017-12-13T17:46:48.541Z,93.49
2017-12-13T17:48:15.839Z,93.39
2017-12-13T17:49:43.106Z,93.51
2017-12-13T17:51:10.399Z,93.71
2017-12-13T17:52:37.466Z,93.98
2017-12-13T17:54:04.777Z,93.75
2017-12-13T17:55:31.867Z,93.68
2017-12-13T17:57:02.923Z,93.77
2017-12-13T17:58:26.289Z,93.64
2017-12-13T17:59:53.206Z,93.91
2017-12-13T18:01:24.395Z,93.75
2017-12-13T18:02:47.669Z,93.70
2017-12-13T18:04:14.798Z,93.66
2017-12-13T18:05:41.955Z,93.51
2017-12-13T18:07:13.201Z,93.45
2017-12-13T18:08:36.268Z,93.67
2017-12-13T18:10:07.439Z,93.70
2017-12-13T18:11:34.650Z,93.48
2017-12-13T18:12:58.045Z,93.68
2017-12-13T18:14:25.398Z,93.77
2017-12-13T18:15:56.601Z,93.78
2017-12-13T18:17:19.863Z,94.02
2017-12-13T18:18:47.070Z,93.79
2017-12-13T18:20:18.267Z,93.94
2017-12-13T18:21:45.457Z,93.68
2017-12-13T18:23:08.713Z,93.90
2017-12-13T18:24:35.963Z,93.89
2017-12-13T18:26:03.249Z,93.79
2017-12-13T18:27:34.396Z,93.93
2017-12-13T18:29:01.468Z,94.00
2017-12-13T18:30:28.815Z,94.24
2017-12-13T18:31:56.115Z,94.08
2017-12-13T18:33:19.380Z,94.28
2017-12-13T18:34:46.695Z,94.31
2017-12-13T18:36:17.691Z,94.33
2017-12-13T18:37:44.884Z,94.23
2017-12-13T18:39:12.103Z,94.11
2017-12-13T18:40:35.250Z,94.32
2017-12-13T18:42:02.441Z,94.22
2017-12-13T18:43:29.532Z,94.26